sensor_id;sensor_type;location;lat;lon;timestamp;temperature;humidity
65770;DHT22;52512;47.650;8.578;2023-05-10T00:02:07;13.60;99.90
65770;DHT22;52512;47.650;8.578;2023-05-10T00:04:32;13.60;99.90
65770;DHT22;52512;47.650;8.578;2023-05-10T00:06:58;13.60;99.90
65770;DHT22;52512;47.650;8.578;2023-05-10T00:09:24;13.60;99.90
65770;DHT22;52512;47.650;8.578;2023-05-10T00:11:50;13.50;99.90
65770;DHT22;52512;47.650;8.578;2023-05-10T00:14:15;13.60;99.90
65770;DHT22;52512;47.650;8.578;2023-05-10T00:16:41;13.50;99.90
65770;DHT22;52512;47.650;8.578;2023-05-10T00:19:07;13.50;99.90
65770;DHT22;52512;47.650;8.578;2023-05-10T00:21:33;13.50;99.90
65770;DHT22;52512;47.650;8.578;2023-05-10T00:23:59;13.50;99.90
65770;DHT22;52512;47.650;8.578;2023-05-10T00:26:25;13.50;99.90
65770;DHT22;52512;47.650;8.578;2023-05-10T00:28:51;13.50;99.90
65770;DHT22;52512;47.650;8.578;2023-05-10T00:31:16;13.50;99.90
65770;DHT22;52512;47.650;8.578;2023-05-10T00:33:42;13.40;99.90
65770;DHT22;52512;47.650;8.578;2023-05-10T00:36:08;13.40;99.90
65770;DHT22;52512;47.650;8.578;2023-05-10T00:38:34;13.40;99.90
65770;DHT22;52512;47.650;8.578;2023-05-10T00:40:59;13.40;99.90
65770;DHT22;52512;47.650;8.578;2023-05-10T00:43:26;13.40;99.90
65770;DHT22;52512;47.650;8.578;2023-05-10T00:45:52;13.40;99.90
65770;DHT22;52512;47.650;8.578;2023-05-10T00:48:18;13.40;99.90
65770;DHT22;52512;47.650;8.578;2023-05-10T00:50:44;13.40;99.90
65770;DHT22;52512;47.650;8.578;2023-05-10T00:53:10;13.30;99.90
65770;DHT22;52512;47.650;8.578;2023-05-10T00:55:36;13.30;99.90
65770;DHT22;52512;47.650;8.578;2023-05-10T00:58:04;13.30;99.90
65770;DHT22;52512;47.650;8.578;2023-05-10T01:00:30;13.30;99.90
65770;DHT22;52512;47.650;8.578;2023-05-10T01:02:58;13.30;99.90
65770;DHT22;52512;47.650;8.578;2023-05-10T01:05:23;13.30;99.90
65770;DHT22;52512;47.650;8.578;2023-05-10T01:07:49;13.40;99.90
65770;DHT22;52512;47.650;8.578;2023-05-10T01:10:15;13.40;99.90
65770;DHT22;52512;47.650;8.578;2023-05-10T01:12:43;13.30;99.90
65770;DHT22;52512;47.650;8.578;2023-05-10T01:15:11;13.30;99.90
65770;DHT22;52512;47.650;8.578;2023-05-10T01:17:39;13.30;99.90
65770;DHT22;52512;47.650;8.578;2023-05-10T01:20:06;13.30;99.90
65770;DHT22;52512;47.650;8.578;2023-05-10T01:35:58;13.20;99.90
65770;DHT22;52512;47.650;8.578;2023-05-10T01:46:36;13.20;99.90
65770;DHT22;52512;47.650;8.578;2023-05-10T01:49:09;13.10;99.90
65770;DHT22;52512;47.650;8.578;2023-05-10T01:51:54;13.10;99.90
65770;DHT22;52512;47.650;8.578;2023-05-10T01:54:24;13.10;99.90
65770;DHT22;52512;47.650;8.578;2023-05-10T01:56:55;13.10;99.90
65770;DHT22;52512;47.650;8.578;2023-05-10T01:59:22;13.10;99.90
65770;DHT22;52512;47.650;8.578;2023-05-10T02:01:51;13.10;99.90
65770;DHT22;52512;47.650;8.578;2023-05-10T02:04:19;13.20;99.90
65770;DHT22;52512;47.650;8.578;2023-05-10T02:06:47;13.20;99.90
65770;DHT22;52512;47.650;8.578;2023-05-10T02:09:14;13.20;99.90
65770;DHT22;52512;47.650;8.578;2023-05-10T02:11:43;13.10;99.90
65770;DHT22;52512;47.650;8.578;2023-05-10T02:14:11;13.10;99.90
65770;DHT22;52512;47.650;8.578;2023-05-10T02:16:38;13.20;99.90
65770;DHT22;52512;47.650;8.578;2023-05-10T02:19:05;13.20;99.90
65770;DHT22;52512;47.650;8.578;2023-05-10T02:21:32;13.20;99.90
65770;DHT22;52512;47.650;8.578;2023-05-10T02:23:59;13.20;99.90
65770;DHT22;52512;47.650;8.578;2023-05-10T02:26:27;13.10;99.90
65770;DHT22;52512;47.650;8.578;2023-05-10T02:28:54;13.10;99.90
65770;DHT22;52512;47.650;8.578;2023-05-10T02:31:21;13.10;99.90
65770;DHT22;52512;47.650;8.578;2023-05-10T02:33:48;13.10;99.90
65770;DHT22;52512;47.650;8.578;2023-05-10T02:36:15;13.10;99.90
65770;DHT22;52512;47.650;8.578;2023-05-10T02:38:42;13.10;99.90
65770;DHT22;52512;47.650;8.578;2023-05-10T02:41:09;13.00;99.90
65770;DHT22;52512;47.650;8.578;2023-05-10T02:43:36;13.00;99.90
65770;DHT22;52512;47.650;8.578;2023-05-10T02:46:03;13.00;99.90
65770;DHT22;52512;47.650;8.578;2023-05-10T02:48:29;13.00;99.90
65770;DHT22;52512;47.650;8.578;2023-05-10T02:50:58;13.00;99.90
65770;DHT22;52512;47.650;8.578;2023-05-10T02:53:31;13.00;99.90
65770;DHT22;52512;47.650;8.578;2023-05-10T02:55:59;13.00;99.90
65770;DHT22;52512;47.650;8.578;2023-05-10T02:58:26;13.00;99.90
65770;DHT22;52512;47.650;8.578;2023-05-10T03:00:55;13.00;99.90
65770;DHT22;52512;47.650;8.578;2023-05-10T03:03:21;13.00;99.90
65770;DHT22;52512;47.650;8.578;2023-05-10T03:05:47;13.00;99.90
65770;DHT22;52512;47.650;8.578;2023-05-10T03:08:13;13.00;99.90
65770;DHT22;52512;47.650;8.578;2023-05-10T03:10:47;13.00;99.90
65770;DHT22;52512;47.650;8.578;2023-05-10T03:16:28;13.00;99.90
65770;DHT22;52512;47.650;8.578;2023-05-10T03:19:01;13.00;99.90
65770;DHT22;52512;47.650;8.578;2023-05-10T03:21:31;13.00;99.90
65770;DHT22;52512;47.650;8.578;2023-05-10T03:24:07;13.00;99.90
65770;DHT22;52512;47.650;8.578;2023-05-10T03:26:33;13.00;99.90
65770;DHT22;52512;47.650;8.578;2023-05-10T03:29:00;13.00;99.90
65770;DHT22;52512;47.650;8.578;2023-05-10T03:31:26;13.00;99.90
65770;DHT22;52512;47.650;8.578;2023-05-10T03:33:52;13.00;99.90
65770;DHT22;52512;47.650;8.578;2023-05-10T03:36:19;13.00;99.90
65770;DHT22;52512;47.650;8.578;2023-05-10T03:38:44;13.00;99.90
65770;DHT22;52512;47.650;8.578;2023-05-10T03:41:10;13.00;99.90
65770;DHT22;52512;47.650;8.578;2023-05-10T03:43:36;13.00;99.90
65770;DHT22;52512;47.650;8.578;2023-05-10T03:46:05;13.00;99.90
65770;DHT22;52512;47.650;8.578;2023-05-10T03:48:34;13.00;99.90
65770;DHT22;52512;47.650;8.578;2023-05-10T03:51:00;13.00;99.90
65770;DHT22;52512;47.650;8.578;2023-05-10T03:53:26;12.90;99.90
65770;DHT22;52512;47.650;8.578;2023-05-10T03:55:52;12.90;99.90
65770;DHT22;52512;47.650;8.578;2023-05-10T03:58:23;12.90;99.90
65770;DHT22;52512;47.650;8.578;2023-05-10T04:00:54;13.00;99.90
65770;DHT22;52512;47.650;8.578;2023-05-10T04:03:20;12.90;99.90
65770;DHT22;52512;47.650;8.578;2023-05-10T04:05:53;12.80;99.90
65770;DHT22;52512;47.650;8.578;2023-05-10T04:08:23;12.90;99.90
65770;DHT22;52512;47.650;8.578;2023-05-10T04:10:51;12.80;99.90
65770;DHT22;52512;47.650;8.578;2023-05-10T04:13:17;12.80;99.90
65770;DHT22;52512;47.650;8.578;2023-05-10T04:15:44;12.80;99.90
65770;DHT22;52512;47.650;8.578;2023-05-10T04:18:12;12.80;99.90
65770;DHT22;52512;47.650;8.578;2023-05-10T04:20:38;12.80;99.90
65770;DHT22;52512;47.650;8.578;2023-05-10T04:23:05;12.80;99.90
65770;DHT22;52512;47.650;8.578;2023-05-10T04:25:33;12.80;99.90
65770;DHT22;52512;47.650;8.578;2023-05-10T04:27:59;12.80;99.90
65770;DHT22;52512;47.650;8.578;2023-05-10T04:30:25;12.80;99.90
65770;DHT22;52512;47.650;8.578;2023-05-10T04:32:54;12.80;99.90
65770;DHT22;52512;47.650;8.578;2023-05-10T04:35:20;12.80;99.90
65770;DHT22;52512;47.650;8.578;2023-05-10T04:37:46;12.80;99.90
65770;DHT22;52512;47.650;8.578;2023-05-10T04:40:12;12.80;99.90
65770;DHT22;52512;47.650;8.578;2023-05-10T04:42:40;12.80;99.90
65770;DHT22;52512;47.650;8.578;2023-05-10T04:45:07;12.90;99.90
65770;DHT22;52512;47.650;8.578;2023-05-10T04:47:32;12.80;99.90
65770;DHT22;52512;47.650;8.578;2023-05-10T04:49:58;12.90;99.90
65770;DHT22;52512;47.650;8.578;2023-05-10T04:52:24;12.80;99.90
65770;DHT22;52512;47.650;8.578;2023-05-10T04:54:50;12.80;99.90
65770;DHT22;52512;47.650;8.578;2023-05-10T04:57:16;12.80;99.90
65770;DHT22;52512;47.650;8.578;2023-05-10T04:59:42;12.80;99.90
65770;DHT22;52512;47.650;8.578;2023-05-10T05:02:08;12.80;99.90
65770;DHT22;52512;47.650;8.578;2023-05-10T05:04:34;12.80;99.90
65770;DHT22;52512;47.650;8.578;2023-05-10T05:06:59;12.80;99.90
65770;DHT22;52512;47.650;8.578;2023-05-10T05:09:25;12.80;99.90
65770;DHT22;52512;47.650;8.578;2023-05-10T05:11:51;12.80;99.90
65770;DHT22;52512;47.650;8.578;2023-05-10T05:14:16;12.80;99.90
65770;DHT22;52512;47.650;8.578;2023-05-10T05:16:42;12.80;99.90
65770;DHT22;52512;47.650;8.578;2023-05-10T05:19:07;12.80;99.90
65770;DHT22;52512;47.650;8.578;2023-05-10T05:21:33;12.80;99.90
65770;DHT22;52512;47.650;8.578;2023-05-10T05:23:59;12.80;99.90
65770;DHT22;52512;47.650;8.578;2023-05-10T05:26:26;12.80;99.90
65770;DHT22;52512;47.650;8.578;2023-05-10T05:28:51;12.80;99.90
65770;DHT22;52512;47.650;8.578;2023-05-10T05:31:20;12.90;99.90
65770;DHT22;52512;47.650;8.578;2023-05-10T05:33:45;12.90;99.90
65770;DHT22;52512;47.650;8.578;2023-05-10T05:36:11;12.90;99.90
65770;DHT22;52512;47.650;8.578;2023-05-10T05:38:37;12.80;99.90
65770;DHT22;52512;47.650;8.578;2023-05-10T05:41:02;12.80;99.90
65770;DHT22;52512;47.650;8.578;2023-05-10T05:43:28;12.80;99.90
65770;DHT22;52512;47.650;8.578;2023-05-10T05:45:54;12.80;99.90
65770;DHT22;52512;47.650;8.578;2023-05-10T05:48:20;12.80;99.90
65770;DHT22;52512;47.650;8.578;2023-05-10T05:50:46;12.80;99.90
65770;DHT22;52512;47.650;8.578;2023-05-10T05:53:12;12.90;99.90
65770;DHT22;52512;47.650;8.578;2023-05-10T05:55:37;12.90;99.90
65770;DHT22;52512;47.650;8.578;2023-05-10T05:58:03;12.80;99.90
65770;DHT22;52512;47.650;8.578;2023-05-10T06:00:29;12.90;99.90
65770;DHT22;52512;47.650;8.578;2023-05-10T06:02:54;12.90;99.90
65770;DHT22;52512;47.650;8.578;2023-05-10T06:05:20;12.90;99.90
65770;DHT22;52512;47.650;8.578;2023-05-10T06:07:47;12.90;99.90
65770;DHT22;52512;47.650;8.578;2023-05-10T06:10:12;12.80;99.90
65770;DHT22;52512;47.650;8.578;2023-05-10T06:12:38;12.80;99.90
65770;DHT22;52512;47.650;8.578;2023-05-10T06:15:04;12.80;99.90
65770;DHT22;52512;47.650;8.578;2023-05-10T06:17:30;12.80;99.90
65770;DHT22;52512;47.650;8.578;2023-05-10T06:19:56;12.80;99.90
65770;DHT22;52512;47.650;8.578;2023-05-10T06:22:21;12.80;99.90
65770;DHT22;52512;47.650;8.578;2023-05-10T06:24:49;12.80;99.90
65770;DHT22;52512;47.650;8.578;2023-05-10T06:27:15;12.80;99.90
65770;DHT22;52512;47.650;8.578;2023-05-10T06:29:41;12.80;99.90
65770;DHT22;52512;47.650;8.578;2023-05-10T06:32:06;12.70;99.90
65770;DHT22;52512;47.650;8.578;2023-05-10T06:34:32;12.80;99.90
65770;DHT22;52512;47.650;8.578;2023-05-10T06:36:58;12.80;99.90
65770;DHT22;52512;47.650;8.578;2023-05-10T06:39:23;12.80;99.90
65770;DHT22;52512;47.650;8.578;2023-05-10T06:41:49;12.80;99.90
65770;DHT22;52512;47.650;8.578;2023-05-10T06:44:15;12.80;99.90
65770;DHT22;52512;47.650;8.578;2023-05-10T06:46:40;12.70;99.90
65770;DHT22;52512;47.650;8.578;2023-05-10T06:49:07;12.70;99.90
65770;DHT22;52512;47.650;8.578;2023-05-10T06:51:32;12.70;99.90
65770;DHT22;52512;47.650;8.578;2023-05-10T06:53:58;12.80;99.90
65770;DHT22;52512;47.650;8.578;2023-05-10T06:56:23;12.80;99.90
65770;DHT22;52512;47.650;8.578;2023-05-10T06:58:49;12.80;99.90
65770;DHT22;52512;47.650;8.578;2023-05-10T07:01:15;12.80;99.90
65770;DHT22;52512;47.650;8.578;2023-05-10T07:03:40;12.80;99.90
65770;DHT22;52512;47.650;8.578;2023-05-10T07:06:06;12.80;99.90
65770;DHT22;52512;47.650;8.578;2023-05-10T07:08:33;12.80;99.90
65770;DHT22;52512;47.650;8.578;2023-05-10T07:11:03;12.90;99.90
65770;DHT22;52512;47.650;8.578;2023-05-10T07:13:33;12.80;99.90
65770;DHT22;52512;47.650;8.578;2023-05-10T07:15:59;12.90;99.90
65770;DHT22;52512;47.650;8.578;2023-05-10T07:18:26;12.90;99.90
65770;DHT22;52512;47.650;8.578;2023-05-10T07:20:52;12.90;99.90
65770;DHT22;52512;47.650;8.578;2023-05-10T07:23:18;12.90;99.90
65770;DHT22;52512;47.650;8.578;2023-05-10T07:25:47;12.90;99.90
65770;DHT22;52512;47.650;8.578;2023-05-10T07:28:14;12.90;99.90
65770;DHT22;52512;47.650;8.578;2023-05-10T07:30:40;13.00;99.90
65770;DHT22;52512;47.650;8.578;2023-05-10T07:33:07;13.00;99.90
65770;DHT22;52512;47.650;8.578;2023-05-10T07:35:34;13.00;99.90
65770;DHT22;52512;47.650;8.578;2023-05-10T07:38:00;13.00;99.90
65770;DHT22;52512;47.650;8.578;2023-05-10T07:40:26;13.00;99.90
65770;DHT22;52512;47.650;8.578;2023-05-10T07:42:51;13.10;99.90
65770;DHT22;52512;47.650;8.578;2023-05-10T07:45:18;13.10;99.90
65770;DHT22;52512;47.650;8.578;2023-05-10T07:47:43;13.10;99.90
65770;DHT22;52512;47.650;8.578;2023-05-10T07:50:09;13.20;99.90
65770;DHT22;52512;47.650;8.578;2023-05-10T07:52:35;13.10;99.90
65770;DHT22;52512;47.650;8.578;2023-05-10T07:55:01;13.20;99.90
65770;DHT22;52512;47.650;8.578;2023-05-10T07:57:26;13.20;99.90
65770;DHT22;52512;47.650;8.578;2023-05-10T07:59:52;13.20;99.90
65770;DHT22;52512;47.650;8.578;2023-05-10T08:02:17;13.30;99.90
65770;DHT22;52512;47.650;8.578;2023-05-10T08:04:43;13.30;99.90
65770;DHT22;52512;47.650;8.578;2023-05-10T08:07:09;13.30;99.90
65770;DHT22;52512;47.650;8.578;2023-05-10T08:09:34;13.30;99.90
65770;DHT22;52512;47.650;8.578;2023-05-10T08:12:01;13.30;99.90
65770;DHT22;52512;47.650;8.578;2023-05-10T08:14:28;13.30;99.90
65770;DHT22;52512;47.650;8.578;2023-05-10T08:16:54;13.30;99.90
65770;DHT22;52512;47.650;8.578;2023-05-10T08:19:19;13.40;99.90
65770;DHT22;52512;47.650;8.578;2023-05-10T08:21:47;13.40;99.90
65770;DHT22;52512;47.650;8.578;2023-05-10T08:24:13;13.40;99.90
65770;DHT22;52512;47.650;8.578;2023-05-10T08:26:38;13.40;99.90
65770;DHT22;52512;47.650;8.578;2023-05-10T08:29:04;13.40;99.90
65770;DHT22;52512;47.650;8.578;2023-05-10T08:31:30;13.40;99.90
65770;DHT22;52512;47.650;8.578;2023-05-10T08:33:55;13.50;99.90
65770;DHT22;52512;47.650;8.578;2023-05-10T08:36:21;13.50;99.90
65770;DHT22;52512;47.650;8.578;2023-05-10T08:38:50;13.50;99.90
65770;DHT22;52512;47.650;8.578;2023-05-10T08:41:18;13.50;99.90
65770;DHT22;52512;47.650;8.578;2023-05-10T08:43:49;13.60;99.90
65770;DHT22;52512;47.650;8.578;2023-05-10T08:46:16;13.60;99.90
65770;DHT22;52512;47.650;8.578;2023-05-10T08:48:46;13.60;99.90
65770;DHT22;52512;47.650;8.578;2023-05-10T08:51:14;13.60;99.90
65770;DHT22;52512;47.650;8.578;2023-05-10T08:53:41;13.70;99.90
65770;DHT22;52512;47.650;8.578;2023-05-10T08:56:07;13.70;99.90
65770;DHT22;52512;47.650;8.578;2023-05-10T08:58:33;13.80;99.90
65770;DHT22;52512;47.650;8.578;2023-05-10T09:01:23;13.90;99.90
65770;DHT22;52512;47.650;8.578;2023-05-10T09:03:51;13.90;99.90
65770;DHT22;52512;47.650;8.578;2023-05-10T09:06:17;14.00;99.90
65770;DHT22;52512;47.650;8.578;2023-05-10T09:08:43;14.00;99.90
65770;DHT22;52512;47.650;8.578;2023-05-10T09:11:17;14.10;99.90
65770;DHT22;52512;47.650;8.578;2023-05-10T09:13:43;14.10;99.90
65770;DHT22;52512;47.650;8.578;2023-05-10T09:16:18;14.10;99.90
65770;DHT22;52512;47.650;8.578;2023-05-10T09:18:44;14.10;99.90
65770;DHT22;52512;47.650;8.578;2023-05-10T09:21:10;14.20;99.90
65770;DHT22;52512;47.650;8.578;2023-05-10T09:23:43;14.20;99.90
65770;DHT22;52512;47.650;8.578;2023-05-10T09:26:09;14.20;99.90
65770;DHT22;52512;47.650;8.578;2023-05-10T09:28:56;14.20;99.90
65770;DHT22;52512;47.650;8.578;2023-05-10T09:31:22;14.30;99.90
65770;DHT22;52512;47.650;8.578;2023-05-10T09:33:49;14.30;99.90
65770;DHT22;52512;47.650;8.578;2023-05-10T09:36:18;14.30;99.90
65770;DHT22;52512;47.650;8.578;2023-05-10T09:38:52;14.30;99.90
65770;DHT22;52512;47.650;8.578;2023-05-10T09:41:25;14.30;99.90
65770;DHT22;52512;47.650;8.578;2023-05-10T09:43:55;14.40;99.90
65770;DHT22;52512;47.650;8.578;2023-05-10T09:46:21;14.40;99.90
65770;DHT22;52512;47.650;8.578;2023-05-10T09:48:53;14.40;99.90
65770;DHT22;52512;47.650;8.578;2023-05-10T09:51:22;14.50;99.90
65770;DHT22;52512;47.650;8.578;2023-05-10T09:53:48;14.50;99.90
65770;DHT22;52512;47.650;8.578;2023-05-10T09:56:33;14.60;99.90
65770;DHT22;52512;47.650;8.578;2023-05-10T09:59:03;14.60;99.90
65770;DHT22;52512;47.650;8.578;2023-05-10T10:01:29;14.60;99.90
65770;DHT22;52512;47.650;8.578;2023-05-10T10:04:05;14.60;99.90
65770;DHT22;52512;47.650;8.578;2023-05-10T10:06:38;14.60;99.90
65770;DHT22;52512;47.650;8.578;2023-05-10T10:09:05;14.70;99.90
65770;DHT22;52512;47.650;8.578;2023-05-10T10:11:31;14.70;99.90
65770;DHT22;52512;47.650;8.578;2023-05-10T10:14:01;14.70;99.90
65770;DHT22;52512;47.650;8.578;2023-05-10T10:19:19;14.90;99.90
65770;DHT22;52512;47.650;8.578;2023-05-10T10:21:49;15.00;99.90
65770;DHT22;52512;47.650;8.578;2023-05-10T10:24:15;15.00;99.90
65770;DHT22;52512;47.650;8.578;2023-05-10T10:26:42;15.10;99.90
65770;DHT22;52512;47.650;8.578;2023-05-10T10:35:22;15.20;99.90
65770;DHT22;52512;47.650;8.578;2023-05-10T10:37:50;15.20;99.90
65770;DHT22;52512;47.650;8.578;2023-05-10T10:40:31;15.30;99.90
65770;DHT22;52512;47.650;8.578;2023-05-10T10:43:24;15.30;99.90
65770;DHT22;52512;47.650;8.578;2023-05-10T10:46:17;15.30;99.90
65770;DHT22;52512;47.650;8.578;2023-05-10T10:49:08;15.30;99.90
65770;DHT22;52512;47.650;8.578;2023-05-10T10:51:40;15.30;99.90
65770;DHT22;52512;47.650;8.578;2023-05-10T10:54:12;15.40;99.90
65770;DHT22;52512;47.650;8.578;2023-05-10T10:56:38;15.40;99.90
65770;DHT22;52512;47.650;8.578;2023-05-10T10:59:03;15.40;99.90
65770;DHT22;52512;47.650;8.578;2023-05-10T11:01:34;15.40;99.90
65770;DHT22;52512;47.650;8.578;2023-05-10T11:06:33;15.50;99.90
65770;DHT22;52512;47.650;8.578;2023-05-10T11:09:05;15.50;99.90
65770;DHT22;52512;47.650;8.578;2023-05-10T11:11:31;15.50;99.90
65770;DHT22;52512;47.650;8.578;2023-05-10T11:14:03;15.50;99.90
65770;DHT22;52512;47.650;8.578;2023-05-10T11:16:43;15.50;99.90
65770;DHT22;52512;47.650;8.578;2023-05-10T11:19:14;15.50;99.90
65770;DHT22;52512;47.650;8.578;2023-05-10T11:21:51;15.60;99.90
65770;DHT22;52512;47.650;8.578;2023-05-10T11:24:36;15.60;99.90
65770;DHT22;52512;47.650;8.578;2023-05-10T11:27:02;15.80;99.90
65770;DHT22;52512;47.650;8.578;2023-05-10T11:29:28;15.80;99.90
65770;DHT22;52512;47.650;8.578;2023-05-10T11:31:57;15.80;99.90
65770;DHT22;52512;47.650;8.578;2023-05-10T11:34:30;15.90;99.90
65770;DHT22;52512;47.650;8.578;2023-05-10T11:36:59;15.90;99.90
65770;DHT22;52512;47.650;8.578;2023-05-10T11:39:29;15.90;99.90
65770;DHT22;52512;47.650;8.578;2023-05-10T11:41:59;15.90;99.90
65770;DHT22;52512;47.650;8.578;2023-05-10T11:44:31;15.90;99.90
65770;DHT22;52512;47.650;8.578;2023-05-10T11:47:01;15.90;99.90
65770;DHT22;52512;47.650;8.578;2023-05-10T11:49:27;15.80;99.90
65770;DHT22;52512;47.650;8.578;2023-05-10T11:51:53;15.80;99.90
65770;DHT22;52512;47.650;8.578;2023-05-10T11:54:18;15.70;99.90
65770;DHT22;52512;47.650;8.578;2023-05-10T11:56:44;15.80;99.90
65770;DHT22;52512;47.650;8.578;2023-05-10T11:59:10;15.70;99.90
65770;DHT22;52512;47.650;8.578;2023-05-10T12:01:39;15.70;99.90
65770;DHT22;52512;47.650;8.578;2023-05-10T12:04:05;15.80;99.90
65770;DHT22;52512;47.650;8.578;2023-05-10T12:06:32;15.80;99.90
65770;DHT22;52512;47.650;8.578;2023-05-10T12:08:58;15.70;99.90
65770;DHT22;52512;47.650;8.578;2023-05-10T12:11:28;15.70;99.90
65770;DHT22;52512;47.650;8.578;2023-05-10T12:13:54;15.70;99.90
65770;DHT22;52512;47.650;8.578;2023-05-10T12:16:25;15.80;99.90
65770;DHT22;52512;47.650;8.578;2023-05-10T12:18:52;15.80;99.90
65770;DHT22;52512;47.650;8.578;2023-05-10T12:21:22;15.80;99.90
65770;DHT22;52512;47.650;8.578;2023-05-10T12:23:52;15.80;99.90
65770;DHT22;52512;47.650;8.578;2023-05-10T12:26:21;15.70;99.90
65770;DHT22;52512;47.650;8.578;2023-05-10T12:28:47;15.80;99.90
65770;DHT22;52512;47.650;8.578;2023-05-10T12:31:13;15.80;99.90
65770;DHT22;52512;47.650;8.578;2023-05-10T12:33:40;15.90;99.90
65770;DHT22;52512;47.650;8.578;2023-05-10T12:36:14;15.90;99.90
65770;DHT22;52512;47.650;8.578;2023-05-10T12:38:44;16.00;99.90
65770;DHT22;52512;47.650;8.578;2023-05-10T12:41:17;16.00;99.90
65770;DHT22;52512;47.650;8.578;2023-05-10T12:43:43;16.10;99.90
65770;DHT22;52512;47.650;8.578;2023-05-10T12:46:10;16.10;99.90
65770;DHT22;52512;47.650;8.578;2023-05-10T12:48:37;16.10;99.90
65770;DHT22;52512;47.650;8.578;2023-05-10T12:51:04;16.10;99.90
65770;DHT22;52512;47.650;8.578;2023-05-10T12:53:30;16.10;99.90
65770;DHT22;52512;47.650;8.578;2023-05-10T12:55:56;16.10;99.90
65770;DHT22;52512;47.650;8.578;2023-05-10T12:58:21;16.10;99.90
65770;DHT22;52512;47.650;8.578;2023-05-10T13:00:47;16.10;99.90
65770;DHT22;52512;47.650;8.578;2023-05-10T13:03:13;16.10;99.90
65770;DHT22;52512;47.650;8.578;2023-05-10T13:05:39;16.00;99.90
65770;DHT22;52512;47.650;8.578;2023-05-10T13:08:05;16.00;99.90
65770;DHT22;52512;47.650;8.578;2023-05-10T13:10:31;16.00;99.90
65770;DHT22;52512;47.650;8.578;2023-05-10T13:13:00;16.00;99.90
65770;DHT22;52512;47.650;8.578;2023-05-10T13:15:26;16.10;99.90
65770;DHT22;52512;47.650;8.578;2023-05-10T13:17:53;16.00;99.90
65770;DHT22;52512;47.650;8.578;2023-05-10T13:20:18;15.90;99.90
65770;DHT22;52512;47.650;8.578;2023-05-10T13:22:45;16.00;99.90
65770;DHT22;52512;47.650;8.578;2023-05-10T13:25:11;16.00;99.90
65770;DHT22;52512;47.650;8.578;2023-05-10T13:27:38;16.00;99.90
65770;DHT22;52512;47.650;8.578;2023-05-10T13:30:05;16.00;99.90
65770;DHT22;52512;47.650;8.578;2023-05-10T13:32:31;16.10;99.90
65770;DHT22;52512;47.650;8.578;2023-05-10T13:34:59;16.10;99.90
65770;DHT22;52512;47.650;8.578;2023-05-10T13:37:24;16.10;99.90
65770;DHT22;52512;47.650;8.578;2023-05-10T13:39:50;16.10;99.90
65770;DHT22;52512;47.650;8.578;2023-05-10T13:42:17;16.10;99.90
65770;DHT22;52512;47.650;8.578;2023-05-10T13:44:43;16.10;99.90
65770;DHT22;52512;47.650;8.578;2023-05-10T13:47:09;16.10;99.90
65770;DHT22;52512;47.650;8.578;2023-05-10T13:49:35;16.10;99.90
65770;DHT22;52512;47.650;8.578;2023-05-10T13:52:01;16.20;99.90
65770;DHT22;52512;47.650;8.578;2023-05-10T13:54:38;16.20;99.90
65770;DHT22;52512;47.650;8.578;2023-05-10T13:57:04;16.20;99.90
65770;DHT22;52512;47.650;8.578;2023-05-10T13:59:30;16.20;99.90
65770;DHT22;52512;47.650;8.578;2023-05-10T14:01:57;16.30;99.90
65770;DHT22;52512;47.650;8.578;2023-05-10T14:04:23;16.30;99.90
65770;DHT22;52512;47.650;8.578;2023-05-10T14:06:49;16.30;99.90
65770;DHT22;52512;47.650;8.578;2023-05-10T14:09:15;16.40;99.90
65770;DHT22;52512;47.650;8.578;2023-05-10T14:11:41;16.40;99.90
65770;DHT22;52512;47.650;8.578;2023-05-10T14:14:09;16.50;99.90
65770;DHT22;52512;47.650;8.578;2023-05-10T14:16:34;16.50;99.90
65770;DHT22;52512;47.650;8.578;2023-05-10T14:19:00;16.60;99.90
65770;DHT22;52512;47.650;8.578;2023-05-10T14:21:27;16.60;99.90
65770;DHT22;52512;47.650;8.578;2023-05-10T14:23:54;16.70;99.90
65770;DHT22;52512;47.650;8.578;2023-05-10T14:26:21;16.70;99.90
65770;DHT22;52512;47.650;8.578;2023-05-10T14:28:47;16.70;99.90
65770;DHT22;52512;47.650;8.578;2023-05-10T14:31:12;16.70;99.80
65770;DHT22;52512;47.650;8.578;2023-05-10T14:33:38;16.70;99.70
65770;DHT22;52512;47.650;8.578;2023-05-10T14:36:04;16.70;99.90
65770;DHT22;52512;47.650;8.578;2023-05-10T14:38:29;16.80;99.90
65770;DHT22;52512;47.650;8.578;2023-05-10T14:40:55;16.80;99.80
65770;DHT22;52512;47.650;8.578;2023-05-10T14:43:21;16.70;99.90
65770;DHT22;52512;47.650;8.578;2023-05-10T14:45:48;16.80;99.80
65770;DHT22;52512;47.650;8.578;2023-05-10T14:48:14;16.70;99.70
65770;DHT22;52512;47.650;8.578;2023-05-10T14:50:43;16.80;99.90
65770;DHT22;52512;47.650;8.578;2023-05-10T14:53:09;16.80;99.90
65770;DHT22;52512;47.650;8.578;2023-05-10T14:55:34;16.80;99.90
65770;DHT22;52512;47.650;8.578;2023-05-10T14:58:01;16.70;99.90
65770;DHT22;52512;47.650;8.578;2023-05-10T15:00:28;16.70;99.90
65770;DHT22;52512;47.650;8.578;2023-05-10T15:02:54;16.70;99.40
65770;DHT22;52512;47.650;8.578;2023-05-10T15:05:20;16.70;98.70
65770;DHT22;52512;47.650;8.578;2023-05-10T15:07:45;16.60;98.30
65770;DHT22;52512;47.650;8.578;2023-05-10T15:10:11;16.70;98.10
65770;DHT22;52512;47.650;8.578;2023-05-10T15:12:37;16.60;98.20
65770;DHT22;52512;47.650;8.578;2023-05-10T15:15:04;16.60;98.10
65770;DHT22;52512;47.650;8.578;2023-05-10T15:17:30;16.70;98.00
65770;DHT22;52512;47.650;8.578;2023-05-10T15:19:56;16.70;98.10
65770;DHT22;52512;47.650;8.578;2023-05-10T15:22:21;16.70;98.20
65770;DHT22;52512;47.650;8.578;2023-05-10T15:24:47;16.70;98.00
65770;DHT22;52512;47.650;8.578;2023-05-10T15:27:13;16.70;97.90
65770;DHT22;52512;47.650;8.578;2023-05-10T15:29:39;16.70;98.20
65770;DHT22;52512;47.650;8.578;2023-05-10T15:32:04;16.70;97.90
65770;DHT22;52512;47.650;8.578;2023-05-10T15:34:30;16.70;98.10
65770;DHT22;52512;47.650;8.578;2023-05-10T15:36:56;16.70;97.90
65770;DHT22;52512;47.650;8.578;2023-05-10T15:39:22;16.60;97.80
65770;DHT22;52512;47.650;8.578;2023-05-10T15:41:47;16.60;97.50
65770;DHT22;52512;47.650;8.578;2023-05-10T15:44:14;16.60;97.90
65770;DHT22;52512;47.650;8.578;2023-05-10T15:46:39;16.60;97.70
65770;DHT22;52512;47.650;8.578;2023-05-10T15:49:05;16.60;97.90
65770;DHT22;52512;47.650;8.578;2023-05-10T15:51:32;16.60;98.20
65770;DHT22;52512;47.650;8.578;2023-05-10T15:54:00;16.60;98.50
65770;DHT22;52512;47.650;8.578;2023-05-10T15:56:27;16.60;98.40
65770;DHT22;52512;47.650;8.578;2023-05-10T15:58:53;16.60;98.40
65770;DHT22;52512;47.650;8.578;2023-05-10T16:01:23;16.60;98.50
65770;DHT22;52512;47.650;8.578;2023-05-10T16:03:49;16.60;98.20
65770;DHT22;52512;47.650;8.578;2023-05-10T16:06:15;16.60;98.70
65770;DHT22;52512;47.650;8.578;2023-05-10T16:08:40;16.50;98.50